• Join FlightAware (Why Join?)
  • Login
  • US Flag 
03:25AM EDT


 

Airport Tracker/Info


-or-


 

Live Flight TrackerFlight Track Log ✈ N662US ✈ 06-Jun-2013 ✈ RJAA / NRT - RPLL / MNL

Flight Track Log - Related Links

Times and Time Zones

All times are in EDT time to prevent confusion due to time zone crossing. See the N662US flight status page for this flight to view local times or setup timezone preferences in your user account.

Time Position Orientation Groundspeed Altitude Reporting Facility
EDT Latitude Longitude Course Direction KTS MPH feet Rate Location/Type
06:09AM 35.6813 140.2867 224° Southwest  Level Estimated
06:10AM 35.5978 140.1871 224° Southwest  Level Estimated
06:11AM 35.5141 140.0878 224° Southwest  Level Estimated
06:11AM 35.7180 140.4090 224° Southwest 177 204 1,800  Level FlightAware
06:11AM 35.7050 140.4180 151° Southeast 180 207 2,400 1,920 Climbing FlightAware
06:12AM 35.4271 139.9848 224° Southwest  Level Estimated
06:12AM 35.6800 140.4360 150° Southeast 192 221 3,400  Level FlightAware
06:12AM 35.6530 140.4560 149° Southeast 225 259 3,900 1,200 Climbing FlightAware
06:13AM 35.6240 140.4770 150° Southeast 263 303 4,600 2,040 Climbing FlightAware
06:13AM 35.5980 140.4950 151° Southeast 271 312 5,800 3,120 Climbing FlightAware
06:14AM 35.5620 140.5210 150° Southeast 276 318 7,500 2,940 Climbing FlightAware
06:14AM 35.5350 140.5410 149° Southeast 275 316 8,500 1,860 Climbing FlightAware
06:15AM 35.5180 140.5620 135° Southeast 280 322 8,900 780 Climbing FlightAware
06:15AM 35.5110 140.5770 120° Southeast 279 321 8,900  Level FlightAware
06:15AM 35.5000 140.6080 114° Southeast 280 322 8,900  Level FlightAware
06:15AM 35.4900 140.6360 114° Southeast 280 322 8,900  Level FlightAware
06:16AM 35.4730 140.6860 113° Southeast 284 327 8,900  Level FlightAware
06:17AM 35.4580 140.7260 115° Southeast 283 326 8,900 240 Level FlightAware
06:17AM 35.4300 140.8050 113° Southeast 284 327 9,200 1,260 Climbing FlightAware
06:18AM 35.4080 140.8660 114° Southeast 305 351 10,800 1,860 Climbing FlightAware
06:19AM 35.3840 140.9290 115° Southeast 346 398 11,700 1,320 Climbing FlightAware
06:19AM 35.3590 140.9560 139° Southeast 361 415 12,100 1,560 Climbing FlightAware
06:20AM 35.2910 140.9770 166° South 405 466 13,200 2,220 Climbing FlightAware
06:20AM 35.2130 140.9860 175° South 416 479 15,100 2,700 Climbing FlightAware
06:21AM 35.1210 141.0000 173° South 432 497 17,200 2,580 Climbing FlightAware
06:22AM 35.0390 141.0180 170° South 447 514 18,800 2,400 Climbing FlightAware
06:22AM 34.9670 141.0140 183° South 437 503 20,400 2,340 Climbing FlightAware
06:23AM 34.8610 140.9910 190° South 442 509 22,300 2,100 Climbing FlightAware
06:24AM 34.7820 140.9730 191° South 458 527 23,600 1,920 Climbing FlightAware
06:25AM 34.6970 140.9560 189° South 457 526 25,000 1,860 Climbing FlightAware
06:25AM 34.6110 140.9390 189° South 469 540 26,200 1,680 Climbing FlightAware
06:26AM 34.5240 140.8930 204° Southwest 460 529 27,400 1,500 Climbing FlightAware
06:27AM 34.4700 140.8210 228° Southwest 467 537 28,200 1,260 Climbing FlightAware
06:27AM 34.3960 140.7190 229° Southwest 479 551 29,300 2,040 Climbing FlightAware
06:28AM 34.3470 140.6500 229° Southwest 453 521 31,200 2,640 Climbing FlightAware
06:29AM 34.2880 140.5660 230° Southwest 449 517 32,800 1,980 Climbing FlightAware
06:29AM 34.2330 140.4860 230° Southwest 438 504 34,000 1,620 Climbing FlightAware
06:30AM 34.1740 140.3990 231° Southwest 433 498 35,300 1,380 Climbing FlightAware
06:31AM 34.1210 140.3240 230° Southwest 433 498 36,000 420 Climbing FlightAware
06:32AM 34.0620 140.2370 231° Southwest 434 499 35,900 -120 Descending FlightAware
06:32AM 34.0130 140.1680 229° Southwest 435 501 35,900  Level FlightAware
06:33AM 33.9570 140.0890 229° Southwest 437 503 35,900  Level FlightAware
06:34AM 33.8980 140.0040 230° Southwest 437 503 35,900  Level FlightAware
06:34AM 33.8450 139.9290 230° Southwest 437 503 35,900  Level FlightAware
06:35AM 33.7700 139.8230 230° Southwest 445 512 35,900  Level FlightAware
06:36AM 33.7140 139.7440 230° Southwest 447 514 35,900  Level FlightAware
06:37AM 33.6610 139.6700 229° Southwest 449 517 35,900  Level FlightAware
06:37AM 33.6010 139.5840 230° Southwest 451 519 35,900  Level FlightAware
06:38AM 33.5450 139.5060 229° Southwest 452 520 35,900  Level FlightAware
06:39AM 33.4880 139.4260 230° Southwest 452 520 35,900  Level FlightAware
06:40AM 33.4270 139.3400 230° Southwest 452 520 35,900  Level FlightAware
06:40AM 33.3720 139.2640 229° Southwest 448 516 35,900  Level FlightAware
06:41AM 33.3130 139.1820 229° Southwest 453 521 35,900  Level FlightAware
06:42AM 33.2560 139.1020 230° Southwest 448 516 35,900  Level FlightAware
06:42AM 33.2030 139.0280 229° Southwest 448 516 35,900  Level FlightAware
06:43AM 33.1380 138.9400 229° Southwest 447 514 35,900  Level FlightAware
06:44AM 33.0670 138.8410 229° Southwest 448 516 35,900  Level FlightAware
06:45AM 32.9840 138.7270 229° Southwest 451 519 35,900  Level FlightAware
06:45AM 32.9380 138.6630 229° Southwest 452 520 35,900  Level FlightAware
06:46AM 32.8730 138.5750 229° Southwest 453 521 35,900  Level FlightAware
06:47AM 32.8150 138.4950 229° Southwest 453 521 35,900  Level FlightAware
06:48AM 32.7620 138.4230 229° Southwest 452 520 35,900  Level FlightAware
06:48AM 32.6950 138.3320 229° Southwest 452 520 35,900  Level FlightAware
06:49AM 32.6400 138.2590 228° Southwest 451 519 35,900  Level FlightAware
06:50AM 32.5860 138.1850 229° Southwest 452 520 35,900  Level FlightAware
06:50AM 32.5190 138.0940 229° Southwest 453 521 35,900  Level FlightAware
06:51AM 32.4610 138.0150 229° Southwest 452 520 35,900  Level FlightAware
06:52AM 32.3650 137.8850 229° Southwest 452 520 35,900  Level FlightAware
06:53AM 32.3030 137.8030 228° Southwest 452 520 35,900  Level FlightAware
06:54AM 32.2200 137.6920 229° Southwest 458 527 35,900  Level FlightAware
06:55AM 32.1670 137.6230 228° Southwest 456 525 35,900  Level FlightAware
06:56AM 32.0840 137.5110 229° Southwest 449 517 35,900  Level FlightAware
06:56AM 32.0240 137.4310 229° Southwest 447 514 35,900  Level FlightAware
06:57AM 31.9720 137.3610 229° Southwest 447 514 35,900  Level FlightAware
06:58AM 31.9310 137.3050 229° Southwest 447 514 35,900  Level FlightAware
06:58AM 31.8630 137.2170 228° Southwest 445 512 35,900  Level FlightAware
06:59AM 31.8080 137.1430 229° Southwest 445 512 35,900  Level FlightAware
07:00AM 31.7660 137.0850 230° Southwest 445 512 35,900  Level FlightAware
07:01AM 31.7120 137.0120 229° Southwest 445 512 35,900  Level FlightAware
07:01AM 31.6700 136.9560 229° Southwest 445 512 35,900  Level FlightAware
07:02AM 31.6140 136.8800 229° Southwest 445 512 35,900  Level FlightAware
07:03AM 31.5720 136.8230 229° Southwest 445 512 35,900  Level FlightAware
07:03AM 31.5170 136.7490 229° Southwest 445 512 35,900  Level FlightAware
07:04AM 31.4780 136.6960 229° Southwest 445 512 35,900  Level FlightAware
07:05AM 31.4130 136.6090 229° Southwest 445 512 35,900  Level FlightAware
07:06AM 31.3590 136.5360 229° Southwest 445 512 35,900  Level FlightAware
07:06AM 31.3180 136.4810 229° Southwest 445 512 35,900  Level FlightAware
07:07AM 31.2620 136.4050 229° Southwest 445 512 35,900  Level FlightAware
07:08AM 31.2230 136.3530 229° Southwest 445 512 35,900 -60 Level FlightAware
07:10AM 31.0621 136.1749 224° Southwest  Level Estimated
07:11AM 30.9723 136.0758 223° Southwest  Level Estimated
07:12AM 30.8824 135.9769 223° Southwest  Level Estimated
07:13AM 30.7924 135.8782 223° Southwest  Level Estimated
07:14AM 30.7024 135.7797 223° Southwest  Level Estimated
07:15AM 30.6122 135.6814 223° Southwest  Level Estimated
07:16AM 30.5220 135.5832 223° Southwest  Level Estimated
07:17AM 30.4317 135.4853 223° Southwest  Level Estimated
07:18AM 30.3414 135.3875 223° Southwest  Level Estimated
07:19AM 30.2510 135.2899 223° Southwest  Level Estimated
07:20AM 30.1605 135.1924 223° Southwest  Level Estimated
07:21AM 30.0699 135.0952 223° Southwest  Level Estimated
07:22AM 29.9793 134.9981 223° Southwest  Level Estimated
07:23AM 29.8886 134.9012 223° Southwest  Level Estimated
07:24AM 29.7978 134.8045 223° Southwest  Level Estimated
07:25AM 29.7069 134.7080 223° Southwest  Level Estimated
07:26AM 29.6160 134.6116 223° Southwest  Level Estimated
07:27AM 29.5250 134.5154 223° Southwest  Level Estimated
07:28AM 29.4340 134.4194 223° Southwest  Level Estimated
07:29AM 29.3428 134.3235 223° Southwest  Level Estimated
07:30AM 29.2516 134.2279 222° Southwest  Level Estimated
07:31AM 29.1604 134.1324 222° Southwest  Level Estimated
07:32AM 29.0690 134.0370 222° Southwest  Level Estimated
07:33AM 28.9776 133.9418 222° Southwest  Level Estimated
07:34AM 28.8862 133.8468 222° Southwest  Level Estimated
07:35AM 28.7946 133.7520 222° Southwest  Level Estimated
07:36AM 28.7030 133.6573 222° Southwest  Level Estimated
07:37AM 28.6114 133.5628 222° Southwest  Level Estimated
07:38AM 28.5196 133.4685 222° Southwest  Level Estimated
07:39AM 28.4279 133.3743 222° Southwest  Level Estimated
07:40AM 28.3360 133.2803 222° Southwest  Level Estimated
07:41AM 28.2441 133.1865 222° Southwest  Level Estimated
07:42AM 28.1521 133.0928 222° Southwest  Level Estimated
07:43AM 28.0600 132.9993 222° Southwest  Level Estimated
07:44AM 27.9679 132.9059 222° Southwest  Level Estimated
07:45AM 27.8757 132.8127 222° Southwest  Level Estimated
07:46AM 27.7859 132.7221 222° Southwest  Level Estimated
07:47AM 27.6961 132.6317 222° Southwest  Level Estimated
07:48AM 27.6061 132.5414 222° Southwest  Level Estimated
07:49AM 27.5161 132.4512 222° Southwest  Level Estimated
07:50AM 27.4261 132.3612 222° Southwest  Level Estimated
07:51AM 27.3360 132.2714 222° Southwest  Level Estimated
07:52AM 27.2458 132.1817 222° Southwest  Level Estimated
07:53AM 27.1556 132.0921 221° Southwest  Level Estimated
07:54AM 27.0653 132.0027 221° Southwest  Level Estimated
07:55AM 26.9750 131.9134 221° Southwest  Level Estimated
07:56AM 26.8846 131.8243 221° Southwest  Level Estimated
07:57AM 26.7942 131.7353 221° Southwest  Level Estimated
07:58AM 26.7037 131.6464 221° Southwest  Level Estimated
07:59AM 26.6131 131.5577 221° Southwest  Level Estimated
08:00AM 26.5225 131.4691 221° Southwest  Level Estimated
08:01AM 26.4319 131.3807 221° Southwest  Level Estimated
08:02AM 26.3412 131.2924 221° Southwest  Level Estimated
08:03AM 26.2504 131.2043 221° Southwest  Level Estimated
08:04AM 26.1595 131.1163 221° Southwest  Level Estimated
08:05AM 26.0687 131.0284 221° Southwest  Level Estimated
08:06AM 25.9777 130.9406 221° Southwest  Level Estimated
08:07AM 25.8868 130.8530 221° Southwest  Level Estimated
08:08AM 25.7957 130.7656 221° Southwest  Level Estimated
08:09AM 25.7046 130.6782 221° Southwest  Level Estimated
08:10AM 25.6135 130.5910 221° Southwest  Level Estimated
08:11AM 25.5223 130.5040 221° Southwest  Level Estimated
08:12AM 25.4311 130.4170 221° Southwest  Level Estimated
08:13AM 25.3398 130.3302 221° Southwest  Level Estimated
08:14AM 25.2484 130.2435 221° Southwest  Level Estimated
08:15AM 25.1570 130.1570 221° Southwest  Level Estimated
08:16AM 25.0656 130.0706 221° Southwest  Level Estimated
08:17AM 24.9741 129.9843 221° Southwest  Level Estimated
08:18AM 24.8825 129.8982 220° Southwest  Level Estimated
08:19AM 24.7909 129.8121 220° Southwest  Level Estimated
08:20AM 24.6993 129.7262 220° Southwest  Level Estimated
08:21AM 24.6076 129.6405 220° Southwest  Level Estimated
08:22AM 24.5158 129.5548 220° Southwest  Level Estimated
08:23AM 24.4240 129.4693 220° Southwest  Level Estimated
08:24AM 24.3322 129.3839 220° Southwest  Level Estimated
08:25AM 24.2403 129.2986 220° Southwest  Level Estimated
08:26AM 24.1484 129.2135 220° Southwest  Level Estimated
08:27AM 24.0564 129.1284 220° Southwest  Level Estimated
08:28AM 23.9644 129.0435 220° Southwest  Level Estimated
08:29AM 23.8723 128.9587 220° Southwest  Level Estimated
08:30AM 23.7802 128.8741 220° Southwest  Level Estimated
08:31AM 23.6880 128.7895 220° Southwest  Level Estimated
08:32AM 23.5958 128.7051 220° Southwest  Level Estimated
08:33AM 23.5035 128.6208 220° Southwest  Level Estimated
08:34AM 23.4112 128.5366 220° Southwest  Level Estimated
08:35AM 23.3189 128.4525 220° Southwest  Level Estimated
08:36AM 23.2265 128.3685 220° Southwest  Level Estimated
08:37AM 23.1341 128.2847 220° Southwest  Level Estimated
08:38AM 23.0416 128.2010 220° Southwest  Level Estimated
08:39AM 22.9491 128.1174 220° Southwest  Level Estimated
08:40AM 22.8565 128.0339 220° Southwest  Level Estimated
08:41AM 22.7639 127.9505 220° Southwest  Level Estimated
08:42AM 22.6712 127.8672 220° Southwest  Level Estimated
08:43AM 22.5785 127.7840 220° Southwest  Level Estimated
08:44AM 22.4858 127.7010 220° Southwest  Level Estimated
08:45AM 22.3930 127.6181 220° Southwest  Level Estimated
08:46AM 22.3002 127.5352 220° Southwest  Level Estimated
08:47AM 22.2073 127.4525 220° Southwest  Level Estimated
08:48AM 22.1144 127.3699 219° Southwest  Level Estimated
08:49AM 22.0214 127.2874 219° Southwest  Level Estimated
08:50AM 21.9284 127.2050 219° Southwest  Level Estimated
08:51AM 21.8358 127.1231 219° Southwest  Level Estimated
08:52AM 21.7432 127.0413 219° Southwest  Level Estimated
08:53AM 21.6504 126.9596 219° Southwest  Level Estimated
08:54AM 21.5577 126.8780 219° Southwest  Level Estimated
08:55AM 21.4649 126.7965 219° Southwest  Level Estimated
08:56AM 21.3721 126.7151 219° Southwest  Level Estimated
08:57AM 21.2792 126.6338 219° Southwest  Level Estimated
08:58AM 21.1863 126.5526 219° Southwest  Level Estimated
08:59AM 21.0933 126.4715 219° Southwest  Level Estimated
09:00AM 21.0004 126.3905 219° Southwest  Level Estimated
09:01AM 20.9074 126.3097 219° Southwest  Level Estimated
09:02AM 20.8143 126.2289 219° Southwest  Level Estimated
09:03AM 20.7212 126.1482 219° Southwest  Level Estimated
09:04AM 20.6281 126.0676 219° Southwest  Level Estimated
09:05AM 20.5349 125.9871 219° Southwest  Level Estimated
09:06AM 20.4417 125.9067 219° Southwest  Level Estimated
09:07AM 20.3484 125.8264 219° Southwest  Level Estimated
09:08AM 20.2551 125.7462 219° Southwest  Level Estimated
09:09AM 20.1618 125.6661 219° Southwest  Level Estimated
09:10AM 20.0685 125.5861 219° Southwest  Level Estimated
09:11AM 19.9751 125.5062 219° Southwest  Level Estimated
09:12AM 19.8817 125.4264 219° Southwest  Level Estimated
09:13AM 19.7882 125.3467 219° Southwest  Level Estimated
09:14AM 19.6947 125.2671 219° Southwest  Level Estimated
09:15AM 19.6012 125.1875 219° Southwest  Level Estimated
09:16AM 19.5076 125.1081 219° Southwest  Level Estimated
09:17AM 19.4140 125.0287 219° Southwest  Level Estimated
09:18AM 19.3204 124.9495 219° Southwest  Level Estimated
09:19AM 19.2267 124.8703 219° Southwest  Level Estimated
09:20AM 19.1330 124.7912 219° Southwest  Level Estimated
09:21AM 19.0384 124.7115 219° Southwest  Level Estimated
09:22AM 18.9438 124.6320 219° Southwest  Level Estimated
09:23AM 18.8492 124.5525 218° Southwest  Level Estimated
09:24AM 18.7545 124.4730 218° Southwest  Level Estimated
09:25AM 18.6598 124.3937 218° Southwest  Level Estimated
09:26AM 18.5651 124.3145 218° Southwest  Level Estimated
09:27AM 18.4703 124.2353 218° Southwest  Level Estimated
09:28AM 18.3755 124.1563 218° Southwest  Level Estimated
09:29AM 18.2807 124.0773 218° Southwest  Level Estimated
09:30AM 18.1858 123.9984 218° Southwest  Level Estimated
09:31AM 18.0909 123.9196 218° Southwest  Level Estimated
09:32AM 17.9960 123.8409 218° Southwest  Level Estimated
09:32AM 15.8330 123.2090 218° Southwest 506 582 33,900  Level FlightAware
09:33AM 17.9010 123.7623 218° Southwest  Level Estimated
09:33AM 15.7290 123.1280 217° Southwest 506 582 33,900  Level FlightAware
09:34AM 15.6480 123.0590 219° Southwest 507 583 33,900  Level FlightAware
09:35AM 15.5470 122.8920 238° Southwest 509 586 33,900  Level FlightAware
09:36AM 15.5030 122.8110 241° Southwest 507 583 33,900  Level FlightAware
09:37AM 15.4540 122.7240 240° Southwest 507 583 33,900 -300 Level FlightAware
09:37AM 15.4060 122.6370 240° Southwest 494 568 33,500 -900 Descending FlightAware
09:38AM 15.3560 122.5450 241° Southwest 484 557 32,700 -600 Descending FlightAware
09:39AM 15.3200 122.4800 240° Southwest 484 557 32,700 -1,080 Level FlightAware
09:39AM 15.2640 122.3780 240° Southwest 472 543 31,200 -1,140 Descending FlightAware
09:40AM 15.2170 122.2940 240° Southwest 472 543 31,000 -180 Descending FlightAware
09:41AM 15.1830 122.2320 240° Southwest 472 543 31,000 -1,800 Level FlightAware
09:41AM 15.1270 122.1320 240° Southwest 464 534 28,700 -3,120 Descending FlightAware
09:42AM 15.0820 122.0510 240° Southwest 470 541 26,700 -2,040 Descending FlightAware
09:43AM 15.0210 121.9400 240° Southwest 477 549 25,200 -960 Descending FlightAware
09:44AM 14.9870 121.8800 240° Southwest 477 549 25,200 -4,080 Level FlightAware
09:45AM 14.9080 121.7640 235° Southwest 445 512 18,900 -5,280 Descending FlightAware
09:45AM 14.8760 121.6850 247° West 445 512 16,700 -2,700 Descending FlightAware
09:46AM 14.8430 121.6210 242° Southwest 437 503 15,100 -2,460 Descending FlightAware
09:47AM 14.8070 121.5540 241° Southwest 427 491 13,400 -2,220 Descending FlightAware
09:48AM 14.7600 121.4700 240° Southwest 395 455 12,100 -1,620 Descending FlightAware
09:48AM 14.7160 121.3910 240° Southwest 364 419 11,000 -1,440 Descending FlightAware
09:49AM 14.6800 121.3280 239° Southwest 334 384 10,000 -1,440 Descending FlightAware
09:49AM 14.6630 121.2980 240° Southwest 319 367 9,500 -660 Descending FlightAware
09:50AM 14.6360 121.2500 240° Southwest 310 357 9,300 -1,020 Descending FlightAware
09:50AM 14.6430 121.2070 280° West 285 328 8,400 -1,620 Descending FlightAware
09:51AM 14.6420 121.1770 268° West 277 319 8,100 -780 Descending FlightAware
09:51AM 14.6400 121.1490 266° West 264 304 7,800 -1,020 Descending FlightAware
09:52AM 14.6380 121.0960 268° West 239 275 7,000 -1,260 Descending FlightAware
09:52AM 14.6360 121.0670 266° West 235 270 6,400 -1,020 Descending FlightAware
09:53AM 14.6340 121.0340 266° West 234 269 6,100 -360 Descending FlightAware
09:53AM 14.6330 121.0070 268° West 234 269 6,100 -180 Level FlightAware
09:54AM 14.6080 120.9450 247° West 230 265 5,900 -180 Descending FlightAware
09:55AM 14.5960 120.9250 238° Southwest 230 265 5,900 -1,440 Level FlightAware
09:55AM 14.5790 120.8960 239° Southwest 223 257 4,700 -1,080 Descending FlightAware
09:56AM 14.5440 120.8360 239° Southwest 214 246 4,100 -360 Descending FlightAware
09:57AM 14.5210 120.7950 240° Southwest 216 249 4,100  Level FlightAware
09:58AM 14.4970 120.7570 237° Southwest 214 246 4,100  Level FlightAware
09:58AM 14.4840 120.7660 146° Southeast 212 244 4,100  Level FlightAware
09:58AM 14.4530 120.7670 178° South 212 244 4,100 -420 Level FlightAware
09:59AM 14.4090 120.7780 166° South 204 235 3,600 -660 Descending FlightAware
10:00AM 14.4030 120.8080 102° East 204 235 3,100 -360 Descending FlightAware
10:00AM 14.4190 120.8420 64° Northeast 198 228 3,200 -480 Climbing FlightAware
10:02AM 14.4470 120.9010 64° Northeast 152 175 2,300 -540 Descending FlightAware
10:02AM 14.4540 120.9160 64° Northeast 152 175 2,300 -240 Level FlightAware
10:04AM 14.4610 120.9280 59° Northeast 149 171 1,700 -240 Descending FlightAware
10:05AM 14.4690 120.9420 59° Northeast 149 171 1,700  Level FlightAware